CheckWX is a tool to help pilots better visualize weather data.  It is not intended as a substitute for an official pre-flight weather briefing.

17:59:49 UTC

CYUL METAR
Montreal / Pierre Elliott Trudeau International Airport
Montréal, Quebec, Canada
Current

60 mins ago

CYUL 171700Z 23008KT 30SM FEW020 SCT240 M10/M16 A3023 RMK CF1CI2 SLP241
Observed
Feb-17 @ 17:00 UTC
Wind
  • 230° at 8 KTS
Visibility
30 SM
Flight Rules
VFR
Cloud Levels
  • Few at 2,000' AGL
  • Scattered at 24,000' AGL
Temperature
-10°C / 14°F
Dewpoint
-16°C / 3°F
Humidity
62%
Altimeter
30.23" Hg
Pressure
1024.1 hPa
Previous

2 hours ago

CYUL 171600Z 25005KT 30SM FEW020 FEW240 M11/M16 A3023 RMK CF1CI1 CF TR CI TR SLP241
Observed
Feb-17 @ 16:00 UTC
Wind
  • 250° at 5 KTS
Visibility
30 SM
Flight Rules
VFR
Cloud Levels
  • Few at 2,000' AGL
  • Few at 24,000' AGL
Temperature
-11°C / 12°F
Dewpoint
-16°C / 3°F
Humidity
67%
Altimeter
30.23" Hg
Pressure
1024.1 hPa
Previous

3 hours ago

CYUL 171500Z 00000KT 30SM FEW020 FEW220 M12/M17 A3024 RMK CF1CI1 CF TR CI TR SLP244
Observed
Feb-17 @ 15:00 UTC
Visibility
30 SM
Flight Rules
VFR
Cloud Levels
  • Few at 2,000' AGL
  • Few at 22,000' AGL
Temperature
-12°C / 10°F
Dewpoint
-17°C / 1°F
Humidity
67%
Altimeter
30.24" Hg
Pressure
1024.4 hPa